Terminal Aerodrome Forecast
Issued by NWS Boise, ID

Home | Current Version | Previous Version | Text Only | Print | Product List | Glossary On
Versions: 1 2 3 4 5 6 7 8 9 10 11 12 13 14 15 16 17 18 19 20 21 22 23 24 25 26 27 28
544
FTUS45 KBOI 050523
TAFBNO
TAF
KBNO 050523Z 0506/0606 27010KT P6SM -SHRA OVC120
     FM051200 27010KT P6SM BKN100 OVC200
     FM052100 VRB20G40KT P6SM VCTS BKN100CB OVC200
     FM060200 29013G23KT P6SM VCSH BKN100 OVC200=

USA.gov is the U.S. government's official web portal to all federal, state and local government web resources and services.